Terminal Aerodrome Forecast
Issued by NWS

Current Version | Previous Version | Text Only | Print | Product List | Glossary On
Versions: 1 2 3 4 5 6 7 8 9 10 11 12 13 14 15
000
FTUS46 KPDT 292341 AAA
TAFBDN
TAF AMD
KBDN 292341Z 3000/3024 32008KT P6SM -SHRA SCT050 BKN090
      TEMPO 3000/3002 -TSRA BKN050CB
     FM300500 VRB04KT P6SM FEW080 SCT100
     FM301900 33008KT P6SM SCT100=

USA.gov is the U.S. government's official web portal to all federal, state and local government web resources and services.